Time;durP1;ratioP1;P1;durP2;ratioP2;P2;SDS_P1;SDS_P2;PMS_P1;PMS_P2;Temp;Humidity;BMP_temperature;BMP_pressure;BME280_temperature;BME280_humidity;BME280_pressure;Samples;Min_cycle;Max_cycle;Signal;HPM_P1;HPM_P2
2022/11/08 00:01:32;;;;;;;9.50;4.20;;;;;;;-143.84;79.22;45209.03;4972633;28;20453;-69
2022/11/08 00:04:01;;;;;;;8.60;4.07;;;;;;;-143.84;79.46;45157.59;4974880;28;20453;-69
2022/11/08 00:14:45;;;;;;;6.60;4.47;;;;;;;-143.84;80.28;45188.06;4983157;28;20440;-69
2022/11/08 00:17:13;;;;;;;14.90;4.10;;;;;;;-143.84;80.29;45203.31;4993296;28;20535;-71
2022/11/08 00:19:41;;;;;;;12.00;3.90;;;;;;;-143.84;80.26;45195.69;4992152;28;20829;-72
2022/11/08 00:22:08;;;;;;;6.33;4.20;;;;;;;-143.84;80.60;45210.94;4992162;28;20448;-72
2022/11/08 00:24:35;;;;;;;7.23;4.33;;;;;;;-143.84;80.94;45233.78;5011010;28;20562;-72
2022/11/08 00:27:04;;;;;;;11.70;3.73;;;;;;;-143.84;81.20;45176.66;5011398;28;20453;-72
2022/11/08 00:29:31;;;;;;;9.83;4.53;;;;;;;-143.84;81.22;45214.72;5006397;28;20451;-72
2022/11/08 00:32:00;;;;;;;11.77;4.70;;;;;;;-143.84;81.35;45203.31;4991790;28;20510;-72
2022/11/08 00:34:27;;;;;;;8.73;4.50;;;;;;;-143.84;81.71;45193.78;4991920;28;20444;-72
2022/11/08 00:36:55;;;;;;;7.07;4.37;;;;;;;-143.84;81.95;45207.13;5008863;28;20461;-72
2022/11/08 00:39:22;;;;;;;6.23;4.40;;;;;;;-143.84;81.96;45201.41;5005826;28;20456;-71
2022/11/08 00:41:49;;;;;;;10.30;4.47;;;;;;;-143.84;82.23;45184.25;4992089;28;20815;-72
2022/11/08 00:44:16;;;;;;;10.97;4.53;;;;;;;-143.84;82.01;45205.22;4991729;28;20450;-71
2022/11/08 00:46:43;;;;;;;8.97;4.30;;;;;;;-143.84;82.73;45189.97;4993105;28;20951;-72
2022/11/08 00:49:12;;;;;;;9.23;5.03;;;;;;;-143.84;82.75;45212.84;5011225;28;20448;-72
2022/11/08 00:51:39;;;;;;;9.60;4.53;;;;;;;-143.84;82.92;45189.97;5011111;28;20537;-72
2022/11/08 00:54:08;;;;;;;8.17;5.13;;;;;;;-143.84;82.70;45195.69;5011044;28;20456;-72
2022/11/08 00:56:35;;;;;;;12.43;4.73;;;;;;;-143.84;82.61;45197.59;5009929;28;20448;-72
2022/11/08 00:59:02;;;;;;;6.60;4.47;;;;;;;-143.84;82.55;45174.75;5010734;28;21207;-72
2022/11/08 01:01:30;;;;;;;13.90;4.30;;;;;;;-143.84;82.52;45199.50;5010880;28;20451;-72
2022/11/08 01:03:57;;;;;;;12.80;4.53;;;;;;;-143.84;82.66;45199.50;5010816;28;20440;-72
2022/11/08 01:06:26;;;;;;;8.70;4.53;;;;;;;-143.84;82.61;45209.03;5010232;28;20444;-72
2022/11/08 01:08:54;;;;;;;6.43;4.20;;;;;;;-143.84;82.58;45201.41;5009886;28;20939;-71
2022/11/08 01:11:24;;;;;;;13.27;4.17;;;;;;;-143.84;82.58;45216.63;5010426;28;20920;-72
2022/11/08 01:13:52;;;;;;;8.47;4.20;;;;;;;-143.84;82.56;45191.88;5010336;28;20449;-71
2022/11/08 01:16:22;;;;;;;5.10;4.07;;;;;;;-143.84;82.54;45209.03;5010623;28;20513;-72
2022/11/08 01:18:51;;;;;;;5.30;3.90;;;;;;;-143.84;82.47;45197.59;5010310;28;20452;-72
2022/11/08 01:21:19;;;;;;;6.67;4.17;;;;;;;-143.84;82.39;45189.97;5010374;28;20513;-72
2022/11/08 01:23:47;;;;;;;9.50;4.73;;;;;;;-143.84;82.46;45216.63;5010679;28;20527;-72
2022/11/08 01:26:16;;;;;;;12.70;3.70;;;;;;;-143.84;82.40;45205.22;5010671;28;20997;-72
2022/11/08 01:28:44;;;;;;;7.00;4.00;;;;;;;-143.84;82.41;45203.31;5011133;28;20459;-72
2022/11/08 01:31:13;;;;;;;13.53;4.10;;;;;;;-143.84;82.43;45191.88;4995215;28;21006;-72
2022/11/08 01:33:41;;;;;;;11.90;4.43;;;;;;;-143.84;82.49;45203.31;4991311;28;20523;-72
2022/11/08 01:36:09;;;;;;;9.13;4.20;;;;;;;-143.84;82.33;45189.97;5002611;28;20456;-72
2022/11/08 01:38:36;;;;;;;10.90;4.90;;;;;;;-143.84;82.45;45188.06;5010334;28;20444;-72
2022/11/08 01:41:06;;;;;;;6.37;4.10;;;;;;;-143.84;82.64;45193.78;4993844;28;20469;-72
2022/11/08 01:43:41;;;;;;;8.67;4.27;;;;;;;-143.84;82.64;45205.22;4991015;28;20443;-72
2022/11/08 01:46:34;;;;;;;4.93;4.13;;;;;;;-143.84;82.43;45197.59;4990803;28;20454;-72
2022/11/08 01:49:31;;;;;;;7.30;4.10;;;;;;;-143.84;82.48;45222.34;4990886;28;20453;-72
2022/11/08 01:52:06;;;;;;;6.30;4.53;;;;;;;-143.84;82.44;45201.41;4985832;28;20493;-72
2022/11/08 01:54:39;;;;;;;8.47;4.30;;;;;;;-143.84;82.74;45199.50;4990572;28;20453;-72
2022/11/08 01:57:13;;;;;;;10.70;4.07;;;;;;;-143.84;82.64;45193.78;4990593;28;20821;-72
2022/11/08 01:59:43;;;;;;;8.00;3.80;;;;;;;-143.84;82.52;45195.69;4990412;28;20454;-72
2022/11/08 02:02:12;;;;;;;8.77;4.23;;;;;;;-143.84;82.50;45188.06;4990523;28;20519;-72
2022/11/08 02:04:41;;;;;;;8.53;4.00;;;;;;;-143.84;82.75;45214.72;4994250;28;20460;-72
2022/11/08 02:07:11;;;;;;;9.30;4.60;;;;;;;-143.84;82.94;45216.63;4990135;28;20455;-72
2022/11/08 02:09:40;;;;;;;11.27;4.83;;;;;;;-143.84;83.01;45201.41;4990062;28;20859;-73
2022/11/08 02:12:09;;;;;;;9.63;4.27;;;;;;;-143.84;82.77;45216.63;4990027;28;20483;-72
2022/11/08 02:14:38;;;;;;;10.43;5.10;;;;;;;-143.84;82.98;45178.56;4990088;28;20450;-72
2022/11/08 02:17:05;;;;;;;15.33;5.40;;;;;;;-143.84;83.18;45220.44;4990359;28;20519;-72
2022/11/08 02:19:38;;;;;;;7.53;4.00;;;;;;;-143.84;83.27;45209.03;4990102;28;20468;-72
2022/11/08 02:22:13;;;;;;;5.53;4.00;;;;;;;-143.84;83.52;45191.88;4990019;28;20544;-73
2022/11/08 02:24:42;;;;;;;8.13;4.00;;;;;;;-143.84;83.40;45214.72;4989872;28;20441;-72
2022/11/08 02:27:11;;;;;;;5.53;4.03;;;;;;;-143.84;83.46;45216.63;4990018;28;20510;-72
2022/11/08 02:29:38;;;;;;;6.10;3.70;;;;;;;-143.84;83.38;45191.88;4989824;28;20465;-72
2022/11/08 02:32:05;;;;;;;6.70;4.40;;;;;;;-143.84;83.63;45226.16;4989784;28;20489;-72
2022/11/08 02:34:36;;;;;;;11.90;4.13;;;;;;;-143.84;83.66;45189.97;4989920;28;20444;-70
2022/11/08 02:37:05;;;;;;;7.03;4.23;;;;;;;-143.84;83.74;45193.78;4992070;28;20961;-69
2022/11/08 02:39:33;;;;;;;7.97;3.70;;;;;;;-143.84;83.58;45189.97;4991693;28;20530;-69
2022/11/08 02:42:02;;;;;;;10.90;4.07;;;;;;;-143.84;83.33;45180.47;4992496;28;20490;-69
2022/11/08 02:44:29;;;;;;;7.83;3.97;;;;;;;-143.84;83.22;45207.13;4992434;28;20442;-69
2022/11/08 02:46:56;;;;;;;7.43;4.57;;;;;;;-143.84;83.37;45216.63;4991709;28;20490;-69
2022/11/08 02:49:24;;;;;;;7.23;4.50;;;;;;;-143.84;83.49;45197.59;4991643;28;20488;-69
2022/11/08 02:51:53;;;;;;;12.83;3.90;;;;;;;-143.84;83.58;45178.56;4991967;28;20474;-69
2022/11/08 02:54:21;;;;;;;12.80;4.77;;;;;;;-143.84;83.52;45205.22;4991905;28;20921;-69
2022/11/08 02:56:48;;;;;;;9.53;4.87;;;;;;;-143.84;83.45;45207.13;4991854;28;20496;-69
2022/11/08 02:59:17;;;;;;;11.20;3.80;;;;;;;-143.84;83.47;45224.25;4978223;28;20525;-69
2022/11/08 03:01:44;;;;;;;8.23;4.07;;;;;;;-143.84;83.52;45212.84;4972884;28;20938;-69
2022/11/08 03:04:11;;;;;;;6.30;3.67;;;;;;;-143.84;83.43;45220.44;4986865;28;20935;-69
2022/11/08 03:06:38;;;;;;;9.17;3.67;;;;;;;-143.84;83.15;45209.03;4991680;28;20440;-69
2022/11/08 03:09:06;;;;;;;7.90;3.63;;;;;;;-143.84;82.52;45169.03;4991955;28;20460;-69
2022/11/08 03:11:33;;;;;;;9.20;4.40;;;;;;;-143.84;81.93;45207.13;4991903;28;20480;-69
2022/11/08 03:14:01;;;;;;;10.17;4.93;;;;;;;-143.84;82.61;45199.50;4991705;28;20433;-69
2022/11/08 03:16:30;;;;;;;6.00;3.53;;;;;;;-143.84;82.91;45199.50;4991579;28;20969;-69
2022/11/08 03:18:57;;;;;;;5.57;4.07;;;;;;;-143.84;83.15;45189.97;4991481;28;20449;-69
2022/11/08 03:21:24;;;;;;;4.83;4.00;;;;;;;-143.84;83.15;45201.41;4994998;28;20442;-69
2022/11/08 03:23:51;;;;;;;5.17;4.67;;;;;;;-143.84;83.48;45203.31;4995921;28;20429;-69
2022/11/08 03:26:18;;;;;;;11.80;3.90;;;;;;;-143.84;83.04;45199.50;4995744;28;20495;-69
2022/11/08 03:28:45;;;;;;;4.10;3.80;;;;;;;-143.84;82.75;45197.59;4995686;28;20448;-69
2022/11/08 03:31:12;;;;;;;5.23;3.83;;;;;;;-143.84;83.12;45224.25;4995772;28;20508;-69
2022/11/08 03:33:41;;;;;;;5.70;4.53;;;;;;;-143.84;83.32;45222.34;4995859;28;20445;-69
2022/11/08 03:36:09;;;;;;;6.13;3.97;;;;;;;-143.84;83.48;45184.25;4995805;28;20449;-69
2022/11/08 03:38:36;;;;;;;9.07;4.03;;;;;;;-143.84;82.92;45197.59;4995712;28;20966;-69
2022/11/08 03:41:03;;;;;;;5.93;4.10;;;;;;;-143.84;83.04;45207.13;4995742;28;20437;-69
2022/11/08 03:43:30;;;;;;;12.47;4.67;;;;;;;-143.84;83.29;45216.63;4995407;28;20440;-69
2022/11/08 03:45:57;;;;;;;10.10;4.13;;;;;;;-143.84;83.45;45207.13;4995032;28;20449;-69
2022/11/08 03:48:24;;;;;;;10.40;4.10;;;;;;;-143.84;83.33;45188.06;5009810;28;20475;-69
2022/11/08 03:50:53;;;;;;;9.23;4.30;;;;;;;-143.84;83.43;45199.50;5015013;28;20441;-69
2022/11/08 03:53:20;;;;;;;12.93;3.57;;;;;;;-143.84;82.89;45209.03;5014756;28;20481;-69
2022/11/08 03:55:47;;;;;;;10.70;4.93;;;;;;;-143.84;82.92;45191.88;5014674;28;20454;-69
2022/11/08 03:58:14;;;;;;;6.80;4.23;;;;;;;-143.84;83.44;45218.53;5013398;28;20854;-69
2022/11/08 04:00:41;;;;;;;38.97;5.20;;;;;;;-143.84;83.25;45199.50;5013461;28;20448;-70
2022/11/08 04:03:09;;;;;;;10.10;3.80;;;;;;;-143.84;83.10;45201.41;5013386;28;20450;-69
2022/11/08 04:05:36;;;;;;;6.37;3.50;;;;;;;-143.84;83.08;45197.59;5013516;28;21139;-69
2022/11/08 04:08:06;;;;;;;5.53;3.97;;;;;;;-143.84;82.65;45188.06;5013576;28;20442;-69
2022/11/08 04:10:33;;;;;;;5.37;3.73;;;;;;;-143.84;82.51;45180.47;5013808;28;20440;-70
2022/11/08 04:15:47;;;;;;;11.90;4.20;;;;;;;-143.84;82.78;45184.25;5014077;28;20421;-70
2022/11/08 04:21:19;;;;;;;7.03;4.00;;;;;;;-143.84;83.90;45155.69;5014479;28;20790;-69
2022/11/08 04:23:49;;;;;;;10.40;3.53;;;;;;;-143.84;84.11;45197.59;4996336;28;20842;-69
2022/11/08 04:26:16;;;;;;;6.80;4.17;;;;;;;-143.84;84.15;45201.41;4994078;28;20454;-68
2022/11/08 04:28:45;;;;;;;12.70;4.13;;;;;;;-143.84;84.15;45205.22;4993964;28;20854;-68
2022/11/08 04:31:14;;;;;;;4.27;3.97;;;;;;;-143.84;84.09;45220.44;4994070;28;21181;-69
2022/11/08 04:33:41;;;;;;;9.50;4.60;;;;;;;-143.84;84.17;45224.25;4993825;28;20481;-69
2022/11/08 04:36:10;;;;;;;6.50;3.57;;;;;;;-143.84;84.25;45201.41;4993703;28;20440;-69
2022/11/08 04:38:38;;;;;;;7.03;3.90;;;;;;;-143.84;84.05;45189.97;4993853;28;20509;-69
2022/11/08 04:41:12;;;;;;;5.07;3.90;;;;;;;-143.84;84.47;45203.31;4993615;28;20449;-69
2022/11/08 04:43:40;;;;;;;6.03;3.67;;;;;;;-143.84;84.43;45224.25;4993750;28;20865;-69
2022/11/08 04:46:09;;;;;;;6.40;3.80;;;;;;;-143.84;84.81;45201.41;4993583;28;20518;-69
2022/11/08 04:48:37;;;;;;;17.07;4.00;;;;;;;-143.84;84.23;45209.03;5010364;28;20495;-69
2022/11/08 04:51:05;;;;;;;13.90;4.37;;;;;;;-143.84;84.20;45203.31;5013279;28;20448;-69
2022/11/08 04:53:32;;;;;;;8.37;4.10;;;;;;;-143.84;84.15;45205.22;5013153;28;20537;-69
2022/11/08 04:56:01;;;;;;;5.70;4.03;;;;;;;-143.84;84.05;45197.59;5003597;28;20466;-69
2022/11/08 04:58:33;;;;;;;10.00;4.07;;;;;;;-143.84;83.57;45195.69;4994201;28;20531;-69
2022/11/08 05:01:01;;;;;;;7.17;3.90;;;;;;;-143.84;83.32;45216.63;4994241;28;20465;-70
2022/11/08 05:03:28;;;;;;;13.53;4.27;;;;;;;-143.84;83.25;45186.16;4993431;28;20442;-71
2022/11/08 05:05:55;;;;;;;8.07;4.40;;;;;;;-143.84;83.12;45214.72;4993226;28;20449;-70
2022/11/08 05:08:23;;;;;;;5.90;3.60;;;;;;;-143.84;82.74;45226.16;4993078;28;21091;-70
2022/11/08 05:10:50;;;;;;;8.70;4.00;;;;;;;-143.84;82.76;45207.13;4992288;28;20515;-70
2022/11/08 05:13:17;;;;;;;16.10;4.90;;;;;;;-143.84;83.01;45186.16;4997309;28;20479;-70
2022/11/08 05:15:45;;;;;;;4.03;3.40;;;;;;;-143.84;82.95;45212.84;5012245;28;20509;-70
2022/11/08 05:18:12;;;;;;;9.80;3.93;;;;;;;-143.84;82.73;45222.34;5013025;28;20498;-70
2022/11/08 05:23:24;;;;;;;8.63;4.00;;;;;;;-143.84;81.81;45212.84;5013376;28;20493;-70
2022/11/08 05:25:53;;;;;;;7.43;4.53;;;;;;;-143.84;81.59;45205.22;5012390;28;20504;-70
2022/11/08 05:28:23;;;;;;;13.63;4.33;;;;;;;-143.84;81.13;45197.59;5012706;28;20444;-70
2022/11/08 05:30:56;;;;;;;5.40;3.90;;;;;;;-143.84;81.30;45203.31;5011665;28;20448;-70
2022/11/08 05:33:24;;;;;;;15.67;4.33;;;;;;;-143.84;80.92;45205.22;5011216;28;20511;-72
2022/11/08 05:35:52;;;;;;;8.00;4.33;;;;;;;-143.84;80.68;45195.69;5011167;28;21025;-71
2022/11/08 05:38:20;;;;;;;6.47;3.63;;;;;;;-143.84;80.79;45201.41;5011819;28;20957;-68
2022/11/08 05:40:47;;;;;;;11.20;3.90;;;;;;;-143.84;80.43;45220.44;5010979;28;20509;-68
2022/11/08 05:43:17;;;;;;;12.67;4.40;;;;;;;-143.84;80.56;45186.16;5011692;28;20445;-70
2022/11/08 05:45:45;;;;;;;13.10;4.47;;;;;;;-143.84;79.95;45197.59;5012865;28;20551;-69
2022/11/08 05:48:14;;;;;;;5.83;4.03;;;;;;;-143.84;80.13;45186.16;5012260;28;20515;-69
2022/11/08 05:50:41;;;;;;;9.67;4.03;;;;;;;-143.84;79.65;45195.69;5012915;28;20507;-70
2022/11/08 05:53:08;;;;;;;7.90;4.37;;;;;;;-143.84;78.66;45169.03;5012457;28;20473;-70
2022/11/08 05:55:35;;;;;;;11.80;4.20;;;;;;;-143.84;77.98;45180.47;5011974;28;20446;-70
2022/11/08 05:58:02;;;;;;;10.30;3.97;;;;;;;-143.84;77.07;45163.31;5011889;28;20860;-70
2022/11/08 06:00:30;;;;;;;5.53;4.00;;;;;;;-143.84;77.06;45188.06;5012050;28;20490;-70
2022/11/08 06:02:57;;;;;;;4.80;4.27;;;;;;;-143.84;77.63;45172.84;5012110;28;20509;-70
2022/11/08 06:05:25;;;;;;;13.27;4.00;;;;;;;-143.84;77.69;45199.50;5012223;28;20451;-70
2022/11/08 06:07:53;;;;;;;9.03;4.37;;;;;;;-143.84;77.07;45189.97;5012139;28;20496;-70
2022/11/08 06:10:21;;;;;;;6.17;4.30;;;;;;;-143.84;77.51;45178.56;5011726;28;20475;-70
2022/11/08 06:12:48;;;;;;;9.70;4.37;;;;;;;-143.84;77.20;45161.41;5011988;28;20496;-70
2022/11/08 06:15:15;;;;;;;6.47;3.27;;;;;;;-143.84;77.13;45188.06;5012298;28;20439;-70
2022/11/08 06:17:42;;;;;;;4.57;3.97;;;;;;;-143.84;76.83;45174.75;5011842;28;20435;-70
2022/11/08 06:20:12;;;;;;;14.53;4.00;;;;;;;-143.84;76.04;45188.06;5011619;28;20447;-71
2022/11/08 06:22:42;;;;;;;6.03;4.30;;;;;;;-143.84;75.10;45180.47;5012335;28;20547;-70
2022/11/08 06:25:09;;;;;;;6.80;3.47;;;;;;;-143.84;74.85;45167.13;5011026;28;20451;-70
2022/11/08 06:27:37;;;;;;;6.47;3.80;;;;;;;-143.84;74.78;45186.16;4994380;28;20433;-70
2022/11/08 06:30:05;;;;;;;11.00;4.07;;;;;;;-143.84;73.28;45155.69;5011165;28;20439;-71
2022/11/08 06:32:32;;;;;;;4.97;3.40;;;;;;;-143.84;71.05;45176.66;5010723;28;21000;-71
2022/11/08 06:34:59;;;;;;;12.53;3.40;;;;;;;-143.84;71.21;45159.50;5010909;28;20439;-71
2022/11/08 06:37:26;;;;;;;9.00;3.13;;;;;;;-143.84;70.00;45138.56;5010013;28;21005;-71
2022/11/08 06:39:54;;;;;;;14.43;3.93;;;;;;;-143.84;68.92;45148.09;5010346;28;20926;-70
2022/11/08 06:42:22;;;;;;;10.77;3.87;;;;;;;-143.84;67.32;45148.09;5010775;28;20473;-70
2022/11/08 06:44:49;;;;;;;4.30;3.60;;;;;;;-143.84;65.00;45140.47;5010665;28;20550;-70
2022/11/08 06:47:16;;;;;;;6.90;3.67;;;;;;;-143.84;64.25;45161.41;5010598;28;20494;-70
2022/11/08 06:49:43;;;;;;;8.67;3.80;;;;;;;-143.84;64.42;45172.84;5010594;28;20525;-70
2022/11/08 06:52:11;;;;;;;7.53;4.00;;;;;;;-143.84;63.29;45140.47;5010579;28;20507;-70
2022/11/08 06:54:38;;;;;;;10.37;4.27;;;;;;;-143.84;62.74;45157.59;5009019;28;20482;-70
2022/11/08 06:57:06;;;;;;;11.33;4.60;;;;;;;-143.84;62.78;45159.50;5010685;28;20442;-70
2022/11/08 06:59:34;;;;;;;5.67;4.67;;;;;;;-143.84;61.93;45142.38;5010186;28;20454;-70
2022/11/08 07:02:01;;;;;;;10.00;4.70;;;;;;;-143.84;62.36;45144.28;5010278;28;20483;-70
2022/11/08 07:04:28;;;;;;;7.77;4.30;;;;;;;-143.84;58.30;45155.69;5010637;28;20456;-71
2022/11/08 07:06:56;;;;;;;8.37;4.50;;;;;;;-143.84;58.79;45150.00;5010741;28;20850;-70
2022/11/08 07:09:23;;;;;;;17.83;4.60;;;;;;;-143.84;58.73;45151.91;5010178;28;20442;-70
2022/11/08 07:11:50;;;;;;;6.60;5.10;;;;;;;-143.84;57.27;45159.50;5010665;28;20443;-70
2022/11/08 07:14:20;;;;;;;12.60;4.73;;;;;;;-143.84;55.68;45144.28;5010139;28;20490;-70
2022/11/08 07:16:47;;;;;;;10.73;5.03;;;;;;;-143.84;56.34;45132.84;5008451;28;20447;-72
2022/11/08 07:19:15;;;;;;;10.83;4.43;;;;;;;-143.84;53.46;45138.56;5009146;28;20435;-72
2022/11/08 07:21:42;;;;;;;9.70;4.40;;;;;;;-143.84;53.46;45159.50;5008533;28;20446;-72
2022/11/08 07:24:09;;;;;;;12.53;5.17;;;;;;;-143.84;52.41;45117.63;5007843;28;20447;-72
2022/11/08 07:26:37;;;;;;;10.40;4.50;;;;;;;-143.84;53.77;45136.66;5008371;28;20440;-72
2022/11/08 07:29:04;;;;;;;9.40;4.47;;;;;;;-143.84;51.37;45136.66;5008595;28;20483;-72
2022/11/08 07:31:32;;;;;;;5.90;4.20;;;;;;;-143.84;50.25;45129.03;5008927;28;20447;-72
2022/11/08 07:33:59;;;;;;;11.43;4.00;;;;;;;-143.84;51.47;45132.84;5008759;28;20467;-72
2022/11/08 07:36:27;;;;;;;12.17;5.23;;;;;;;-143.84;49.84;45110.00;5008701;28;20439;-72
2022/11/08 07:38:54;;;;;;;9.67;4.57;;;;;;;-143.84;50.60;45127.13;5008137;28;20965;-72
2022/11/08 07:41:21;;;;;;;7.00;5.67;;;;;;;-143.84;51.02;45111.91;5008586;28;20541;-72
2022/11/08 07:43:48;;;;;;;19.07;6.70;;;;;;;-143.84;52.14;45140.47;5008599;28;20443;-72
2022/11/08 07:46:15;;;;;;;10.43;7.10;;;;;;;-143.84;52.36;45119.53;5007862;28;20448;-72
2022/11/08 07:48:44;;;;;;;13.50;5.10;;;;;;;-143.84;51.33;45142.38;5007910;28;20487;-72
2022/11/08 07:51:11;;;;;;;14.53;4.33;;;;;;;-143.84;50.08;45119.53;5008179;28;20447;-72
2022/11/08 07:53:38;;;;;;;11.10;5.47;;;;;;;-143.84;50.46;45115.72;5007712;28;20492;-72
2022/11/08 07:56:05;;;;;;;13.33;6.13;;;;;;;-143.84;49.42;45110.00;5008494;28;20447;-72
2022/11/08 07:58:33;;;;;;;14.53;6.47;;;;;;;-143.84;49.62;45096.66;5008150;28;20909;-72
2022/11/08 08:01:04;;;;;;;17.03;6.83;;;;;;;-143.84;50.34;45142.38;5007893;28;20638;-72
2022/11/08 08:03:34;;;;;;;16.63;6.77;;;;;;;-143.84;50.75;45129.03;5008381;28;20462;-72
2022/11/08 08:06:03;;;;;;;12.20;5.53;;;;;;;-143.84;49.82;45113.81;5009833;28;20432;-72
2022/11/08 08:08:31;;;;;;;10.20;4.07;;;;;;;-143.84;49.60;45117.63;5011564;28;20537;-72
2022/11/08 08:10:59;;;;;;;12.30;5.40;;;;;;;-143.84;48.64;45110.00;5012514;28;20448;-72
2022/11/08 08:13:27;;;;;;;22.07;6.87;;;;;;;-143.84;48.35;45111.91;5011943;28;20483;-72
2022/11/08 08:15:58;;;;;;;11.13;4.63;;;;;;;-143.84;48.72;45106.19;5012177;28;20505;-72
2022/11/08 08:18:25;;;;;;;5.73;3.60;;;;;;;-143.84;48.65;45125.22;5011937;28;20451;-72
2022/11/08 08:20:53;;;;;;;14.27;6.83;;;;;;;-143.84;47.94;45119.53;5011919;28;20726;-72
2022/11/08 08:23:21;;;;;;;11.63;6.77;;;;;;;-143.84;47.37;45125.22;5011331;28;20458;-72
2022/11/08 08:25:49;;;;;;;16.40;8.83;;;;;;;-143.84;47.40;45108.09;5011679;28;20452;-71
2022/11/08 08:28:16;;;;;;;22.40;10.20;;;;;;;-143.84;47.21;45104.28;5011580;28;20443;-72
2022/11/08 08:30:43;;;;;;;39.80;10.50;;;;;;;-143.84;46.25;45102.38;5012167;28;20439;-72
2022/11/08 08:33:13;;;;;;;13.17;7.60;;;;;;;-143.84;47.24;45129.03;5011519;28;20537;-72
2022/11/08 08:35:42;;;;;;;13.13;8.40;;;;;;;-143.84;47.83;45110.00;5011523;28;20523;-72
2022/11/08 08:38:11;;;;;;;17.53;10.00;;;;;;;-143.84;46.85;45123.34;5011058;28;20846;-72
2022/11/08 08:40:40;;;;;;;15.67;9.73;;;;;;;-143.84;47.17;45129.03;5011310;28;20482;-72
2022/11/08 08:43:07;;;;;;;12.07;6.57;;;;;;;-143.84;48.40;45125.22;5011390;28;20456;-72
2022/11/08 08:45:35;;;;;;;13.37;6.60;;;;;;;-143.84;48.49;45108.09;5011322;28;20443;-72
2022/11/08 08:48:04;;;;;;;12.33;5.90;;;;;;;-143.84;47.26;45132.84;5011642;28;20522;-70
2022/11/08 08:50:33;;;;;;;8.87;6.13;;;;;;;-143.84;47.93;45117.63;5013340;28;20505;-69
2022/11/08 08:53:01;;;;;;;12.73;6.87;;;;;;;-143.84;46.78;45098.56;5011694;28;20475;-68
2022/11/08 08:55:28;;;;;;;10.97;5.97;;;;;;;-143.84;47.16;45104.28;5011175;28;20440;-68
2022/11/08 08:57:57;;;;;;;11.63;6.30;;;;;;;-143.84;45.19;45081.44;5010657;28;20471;-67
2022/11/08 09:00:24;;;;;;;12.13;5.13;;;;;;;-143.84;46.04;45098.56;5010617;28;21140;-71
2022/11/08 09:02:51;;;;;;;11.57;5.17;;;;;;;-143.84;46.09;45134.75;5011451;28;20448;-71
2022/11/08 09:05:19;;;;;;;11.70;5.37;;;;;;;-143.84;45.71;45096.66;5010992;28;20447;-71
2022/11/08 09:07:46;;;;;;;13.13;4.80;;;;;;;-143.84;44.17;45092.88;5010493;28;20450;-71
2022/11/08 09:10:13;;;;;;;7.03;3.90;;;;;;;-143.84;43.21;45113.81;5011199;28;20435;-69
2022/11/08 09:12:40;;;;;;;8.80;4.53;;;;;;;-143.84;43.23;45098.56;5011288;28;20443;-69
2022/11/08 09:15:10;;;;;;;24.17;5.30;;;;;;;-143.84;43.97;45113.81;5011182;28;20505;-68
2022/11/08 09:17:37;;;;;;;6.77;4.80;;;;;;;-143.84;42.61;45106.19;5009701;28;20467;-71
2022/11/08 09:20:05;;;;;;;4.93;4.37;;;;;;;-143.84;43.41;45094.78;5010843;28;20443;-68
2022/11/08 09:22:33;;;;;;;9.57;4.17;;;;;;;-143.84;43.48;45098.56;5009751;28;20506;-69
2022/11/08 09:25:01;;;;;;;12.07;4.80;;;;;;;-143.84;44.15;45083.34;5010666;28;20539;-68
2022/11/08 09:27:29;;;;;;;21.20;9.57;;;;;;;-143.84;45.08;45100.47;5010680;28;20440;-69
2022/11/08 09:29:56;;;;;;;12.20;7.23;;;;;;;-143.84;45.01;45104.28;4994490;28;20460;-68
2022/11/08 09:32:26;;;;;;;15.77;8.07;;;;;;;-143.84;45.35;45100.47;4991068;28;20440;-69
2022/11/08 09:34:53;;;;;;;7.37;4.57;;;;;;;-143.84;44.83;45077.63;4990853;28;20480;-68
2022/11/08 09:37:20;;;;;;;14.33;5.50;;;;;;;-143.84;45.81;45089.06;4991322;28;20458;-68
2022/11/08 09:39:47;;;;;;;5.97;3.50;;;;;;;-143.84;44.50;45087.16;4990545;28;20452;-68
2022/11/08 09:42:28;;;;;;;12.30;4.53;;;;;;;-143.84;44.87;45119.53;4990710;28;20455;-68
2022/11/08 09:45:16;;;;;;;12.00;3.50;;;;;;;-143.84;44.54;45121.44;4992235;28;20444;-68
2022/11/08 09:47:48;;;;;;;4.73;3.50;;;;;;;-143.84;44.63;45098.56;4990718;28;20487;-68
2022/11/08 09:50:21;;;;;;;14.43;5.60;;;;;;;-143.84;45.37;45098.56;4990654;28;20519;-68
2022/11/08 09:52:55;;;;;;;9.67;5.77;;;;;;;-143.84;46.49;45098.56;4990493;28;20441;-68
2022/11/08 09:55:29;;;;;;;14.03;5.70;;;;;;;-143.84;45.52;45087.16;4990695;28;20528;-68
2022/11/08 09:58:12;;;;;;;13.13;4.70;;;;;;;-143.84;45.12;45108.09;4990487;28;20451;-68
2022/11/08 10:00:40;;;;;;;10.43;5.20;;;;;;;-143.84;46.31;45127.13;4990512;28;20565;-68
2022/11/08 10:03:13;;;;;;;13.00;3.93;;;;;;;-143.84;46.57;45117.63;4989896;28;21032;-68
2022/11/08 10:05:43;;;;;;;10.33;6.00;;;;;;;-143.84;46.02;45110.00;4989604;28;20448;-67
2022/11/08 10:08:19;;;;;;;8.60;5.50;;;;;;;-143.84;46.32;45129.03;4989598;28;20475;-68
2022/11/08 10:11:01;;;;;;;13.03;4.10;;;;;;;-143.84;46.37;45113.81;4989998;28;20510;-68
2022/11/08 10:13:38;;;;;;;4.47;4.07;;;;;;;-143.84;46.79;45117.63;4989595;28;20486;-68
2022/11/08 10:16:18;;;;;;;9.33;4.70;;;;;;;-143.84;46.95;45102.38;4989826;28;20455;-68
2022/11/08 10:19:14;;;;;;;15.93;4.80;;;;;;;-143.84;47.75;45111.91;4990251;28;20507;-68
2022/11/08 10:21:55;;;;;;;11.10;4.13;;;;;;;-143.84;47.88;45134.75;4990055;28;20444;-68
2022/11/08 10:24:33;;;;;;;9.30;4.63;;;;;;;-143.84;47.70;45130.94;4990177;28;20462;-68
2022/11/08 10:27:02;;;;;;;5.47;3.90;;;;;;;-143.84;46.79;45111.91;4990397;28;20506;-69
2022/11/08 10:29:35;;;;;;;10.53;4.40;;;;;;;-143.84;46.34;45119.53;4989957;28;20495;-69
2022/11/08 10:32:13;;;;;;;7.00;3.80;;;;;;;-143.84;46.75;45127.13;4990161;28;20452;-68
2022/11/08 10:34:50;;;;;;;4.23;3.87;;;;;;;-143.84;46.49;45108.09;4989954;28;20510;-68
2022/11/08 10:37:19;;;;;;;8.80;3.90;;;;;;;-143.84;46.15;45100.47;4990218;28;20472;-68
2022/11/08 10:39:54;;;;;;;9.23;4.73;;;;;;;-143.84;45.74;45106.19;4989734;28;20503;-68
2022/11/08 10:42:31;;;;;;;11.13;4.37;;;;;;;-143.84;45.81;45096.66;4989737;28;20539;-68
2022/11/08 10:44:59;;;;;;;9.60;4.10;;;;;;;-143.84;46.47;45121.44;4990258;28;20440;-68
2022/11/08 10:47:29;;;;;;;10.53;4.10;;;;;;;-143.84;45.67;45085.25;4989632;28;21390;-68
2022/11/08 10:49:59;;;;;;;7.70;4.30;;;;;;;-143.84;46.45;45098.56;4989627;28;20449;-67
2022/11/08 10:52:35;;;;;;;6.63;4.00;;;;;;;-143.84;46.20;45108.09;4989695;28;20458;-67
2022/11/08 10:55:05;;;;;;;6.50;4.37;;;;;;;-143.84;45.76;45121.44;4989627;28;20993;-67
2022/11/08 10:57:39;;;;;;;6.40;3.90;;;;;;;-143.84;46.89;45117.63;4989704;28;20452;-67
2022/11/08 11:00:23;;;;;;;9.00;3.83;;;;;;;-143.84;47.13;45130.94;4989118;28;20479;-67
2022/11/08 11:02:52;;;;;;;6.33;4.43;;;;;;;-143.84;48.76;45113.81;4989670;28;21320;-67
2022/11/08 11:05:27;;;;;;;7.93;3.63;;;;;;;-143.84;49.10;45136.66;4989634;28;20911;-67
2022/11/08 11:08:13;;;;;;;9.53;4.40;;;;;;;-143.84;49.84;45121.44;4989396;28;20957;-67
2022/11/08 11:10:42;;;;;;;9.83;4.30;;;;;;;-143.84;51.00;45102.38;4989577;28;20444;-67
2022/11/08 11:13:12;;;;;;;6.27;4.80;;;;;;;-143.84;50.33;45142.38;4989563;28;20436;-67
2022/11/08 11:15:45;;;;;;;11.03;4.47;;;;;;;-143.84;50.77;45132.84;4989660;28;20483;-67
2022/11/08 11:18:28;;;;;;;9.87;4.10;;;;;;;-143.84;51.19;45132.84;4989423;28;20436;-67
2022/11/08 11:21:03;;;;;;;8.90;3.97;;;;;;;-143.84;50.59;45130.94;4989385;28;20444;-67
2022/11/08 11:23:39;;;;;;;8.23;4.23;;;;;;;-143.84;50.26;45106.19;4989772;28;20455;-67
2022/11/08 11:26:11;;;;;;;8.87;4.90;;;;;;;-143.84;50.95;45104.28;4989679;28;20443;-67
2022/11/08 11:28:38;;;;;;;8.13;4.53;;;;;;;-143.84;51.36;45110.00;4989385;28;20458;-68
2022/11/08 11:31:16;;;;;;;9.53;4.63;;;;;;;-143.84;51.56;45111.91;4989318;28;20452;-68
2022/11/08 11:33:45;;;;;;;15.20;5.37;;;;;;;-143.84;51.58;45142.38;4989301;28;20491;-68
2022/11/08 11:36:19;;;;;;;7.93;4.10;;;;;;;-143.84;50.87;45115.72;4989174;28;20962;-68
2022/11/08 11:38:50;;;;;;;15.10;5.80;;;;;;;-143.84;50.78;45104.28;4989362;28;20474;-68
2022/11/08 11:41:24;;;;;;;12.60;4.77;;;;;;;-143.84;50.32;45130.94;4990783;28;20479;-68